Time;durP1;ratioP1;P1;durP2;ratioP2;P2;SDS_P1;SDS_P2;PMS_P1;PMS_P2;Temp;Humidity;BMP_temperature;BMP_pressure;BME280_temperature;BME280_humidity;BME280_pressure;Samples;Min_cycle;Max_cycle;Signal;HPM_P1;HPM_P2
2023/07/08 00:00:10;;;;;;;;;;;19.60;66.10;;;;;;6301383;22;19911;-82
2023/07/08 00:02:36;;;;;;;;;;;19.60;64.80;;;;;;6302850;22;19911;-82
2023/07/08 00:05:02;;;;;;;;;;;19.60;65.70;;;;;;6251552;22;19986;-81
2023/07/08 00:07:28;;;;;;;;;;;19.60;65.80;;;;;;6277012;22;19985;-82
2023/07/08 00:09:54;;;;;;;;;;;19.50;65.10;;;;;;6276501;22;19964;-82
2023/07/08 00:12:19;;;;;;;;;;;19.50;65.20;;;;;;6277677;22;20277;-82
2023/07/08 00:14:45;;;;;;;;;;;19.50;65.40;;;;;;6251101;22;19908;-82
2023/07/08 00:17:12;;;;;;;;;;;19.50;65.90;;;;;;6302914;22;19911;-82
2023/07/08 00:19:37;;;;;;;;;;;19.50;65.20;;;;;;6276848;22;19960;-81
2023/07/08 00:22:08;;;;;;;;;;;19.50;65.90;;;;;;6276164;22;20335;-82
2023/07/08 00:24:33;;;;;;;;;;;19.40;65.80;;;;;;6276617;22;19911;-82
2023/07/08 00:26:59;;;;;;;;;;;19.40;65.20;;;;;;6276286;22;19914;-82
2023/07/08 00:29:25;;;;;;;;;;;19.30;66.00;;;;;;6276645;22;19958;-81
2023/07/08 00:31:51;;;;;;;;;;;19.30;66.10;;;;;;6276561;22;19908;-81
2023/07/08 00:34:16;;;;;;;;;;;19.20;66.10;;;;;;6251345;22;19907;-82
2023/07/08 00:36:44;;;;;;;;;;;19.10;66.20;;;;;;6276986;22;19950;-82
2023/07/08 00:39:14;;;;;;;;;;;19.10;67.20;;;;;;6276246;22;19911;-81
2023/07/08 00:41:41;;;;;;;;;;;19.10;67.10;;;;;;6276245;22;19911;-82
2023/07/08 00:44:09;;;;;;;;;;;19.00;66.70;;;;;;6278143;22;19907;-81
2023/07/08 00:46:40;;;;;;;;;;;19.10;67.00;;;;;;6276239;22;20496;-81
2023/07/08 00:49:06;;;;;;;;;;;19.00;66.50;;;;;;6250138;22;19990;-81
2023/07/08 00:51:32;;;;;;;;;;;19.00;66.80;;;;;;6250993;22;19937;-81
2023/07/08 00:53:58;;;;;;;;;;;18.90;67.40;;;;;;6276597;22;19915;-81
2023/07/08 00:56:35;;;;;;;;;;;18.80;67.50;;;;;;6302016;22;19934;-82
2023/07/08 00:59:00;;;;;;;;;;;18.70;69.00;;;;;;6276158;22;19907;-81
2023/07/08 01:01:28;;;;;;;;;;;18.60;68.60;;;;;;6250831;22;19972;-82
2023/07/08 01:03:55;;;;;;;;;;;18.50;69.20;;;;;;6276910;22;19911;-81
2023/07/08 01:06:22;;;;;;;;;;;18.40;69.50;;;;;;6276788;22;20278;-81
2023/07/08 01:08:52;;;;;;;;;;;18.40;69.90;;;;;;6276492;22;19997;-81
2023/07/08 01:11:21;;;;;;;;;;;18.30;70.70;;;;;;6275669;22;19907;-82
2023/07/08 01:13:47;;;;;;;;;;;18.30;69.70;;;;;;6276092;22;19914;-81
2023/07/08 01:16:14;;;;;;;;;;;18.40;70.30;;;;;;6276344;22;19915;-81
2023/07/08 01:18:41;;;;;;;;;;;18.40;70.40;;;;;;6276105;22;19957;-81
2023/07/08 01:24:38;;;;;;;;;;;18.20;71.00;;;;;;6278116;22;20706;-81
2023/07/08 01:27:05;;;;;;;;;;;18.10;71.50;;;;;;6276317;22;19915;-81
2023/07/08 01:29:31;;;;;;;;;;;18.00;71.80;;;;;;6275947;22;19911;-82
2023/07/08 01:32:24;;;;;;;;;;;18.00;72.10;;;;;;6276374;22;19961;-81
2023/07/08 01:35:01;;;;;;;;;;;18.00;71.60;;;;;;6276153;22;19908;-81
2023/07/08 01:37:30;;;;;;;;;;;17.90;71.80;;;;;;6250375;22;20374;-81
2023/07/08 01:39:56;;;;;;;;;;;18.00;71.70;;;;;;6275793;22;20327;-81
2023/07/08 01:42:21;;;;;;;;;;;18.00;71.40;;;;;;6301544;22;19907;-81
2023/07/08 01:44:49;;;;;;;;;;;17.90;71.20;;;;;;6250433;22;19930;-81
2023/07/08 01:47:17;;;;;;;;;;;17.90;71.70;;;;;;6275700;22;20281;-82
2023/07/08 01:49:44;;;;;;;;;;;17.80;71.80;;;;;;6301894;22;19911;-81
2023/07/08 01:52:10;;;;;;;;;;;17.70;71.90;;;;;;6276021;22;19907;-82
2023/07/08 01:54:58;;;;;;;;;;;17.70;72.20;;;;;;6276175;22;19907;-82
2023/07/08 01:57:23;;;;;;;;;;;17.60;72.30;;;;;;6275652;22;19911;-81
2023/07/08 01:59:50;;;;;;;;;;;17.60;72.00;;;;;;6274979;22;20616;-81
2023/07/08 02:02:15;;;;;;;;;;;17.60;72.20;;;;;;6275573;22;19911;-81
2023/07/08 02:04:41;;;;;;;;;;;17.60;72.40;;;;;;6275713;22;19982;-81
2023/07/08 02:07:07;;;;;;;;;;;17.60;72.80;;;;;;6249922;22;19977;-81
2023/07/08 02:09:32;;;;;;;;;;;17.50;72.60;;;;;;6249767;22;19907;-82
2023/07/08 02:11:58;;;;;;;;;;;17.60;72.00;;;;;;6276195;22;20288;-82
2023/07/08 02:14:24;;;;;;;;;;;17.60;72.90;;;;;;6250069;22;19911;-81
2023/07/08 02:16:49;;;;;;;;;;;17.50;73.00;;;;;;6250127;22;19915;-81
2023/07/08 02:19:15;;;;;;;;;;;17.30;73.40;;;;;;6249888;22;20509;-81
2023/07/08 02:21:41;;;;;;;;;;;17.20;73.40;;;;;;6275049;22;19915;-81
2023/07/08 02:24:07;;;;;;;;;;;17.10;74.00;;;;;;6275448;22;19907;-82
2023/07/08 02:26:34;;;;;;;;;;;17.00;74.80;;;;;;6301123;22;19908;-82
2023/07/08 02:29:01;;;;;;;;;;;17.00;75.00;;;;;;6250197;22;19908;-82
2023/07/08 02:31:26;;;;;;;;;;;16.90;75.50;;;;;;6275259;22;19914;-82
2023/07/08 02:33:53;;;;;;;;;;;16.90;75.50;;;;;;6249800;22;19956;-82
2023/07/08 02:36:18;;;;;;;;;;;16.80;76.20;;;;;;6275142;22;19911;-82
2023/07/08 02:38:46;;;;;;;;;;;16.80;75.70;;;;;;6250079;22;19919;-81
2023/07/08 02:41:12;;;;;;;;;;;16.80;75.20;;;;;;6275171;22;20255;-82
2023/07/08 02:43:38;;;;;;;;;;;16.80;75.30;;;;;;6249551;22;19913;-82
2023/07/08 02:46:05;;;;;;;;;;;16.80;76.10;;;;;;6274424;22;20274;-82
2023/07/08 02:48:31;;;;;;;;;;;16.80;75.60;;;;;;6274649;22;19907;-82
2023/07/08 02:51:05;;;;;;;;;;;16.80;76.40;;;;;;6274630;22;20465;-82
2023/07/08 02:53:31;;;;;;;;;;;16.70;76.00;;;;;;6274468;22;19915;-82
2023/07/08 02:55:57;;;;;;;;;;;16.60;76.40;;;;;;6274813;22;19914;-82
2023/07/08 02:58:23;;;;;;;;;;;16.70;76.40;;;;;;6275210;22;19946;-82
2023/07/08 03:00:52;;;;;;;;;;;16.60;76.40;;;;;;6274375;22;19911;-82
2023/07/08 03:03:18;;;;;;;;;;;16.60;76.40;;;;;;6275035;22;19911;-82
2023/07/08 03:05:58;;;;;;;;;;;16.70;76.70;;;;;;6300718;22;19954;-82
2023/07/08 03:08:24;;;;;;;;;;;16.70;76.70;;;;;;6275063;22;19911;-82
2023/07/08 03:10:55;;;;;;;;;;;16.80;76.50;;;;;;6274877;22;20239;-82
2023/07/08 03:13:21;;;;;;;;;;;16.90;76.00;;;;;;6274855;22;19915;-82
2023/07/08 03:16:12;;;;;;;;;;;16.90;76.10;;;;;;6275016;22;19908;-82
2023/07/08 03:18:45;;;;;;;;;;;16.90;76.10;;;;;;6274659;22;20690;-82
2023/07/08 03:21:12;;;;;;;;;;;16.80;76.50;;;;;;6274635;22;19964;-82
2023/07/08 03:23:38;;;;;;;;;;;16.80;77.50;;;;;;6274889;22;19911;-82
2023/07/08 03:26:04;;;;;;;;;;;16.80;76.30;;;;;;6300708;22;19922;-82
2023/07/08 03:28:31;;;;;;;;;;;16.90;76.20;;;;;;6249217;22;19908;-82
2023/07/08 03:30:57;;;;;;;;;;;17.00;77.00;;;;;;6274501;22;20277;-82
2023/07/08 03:33:23;;;;;;;;;;;17.00;76.30;;;;;;6273774;22;19907;-82
2023/07/08 03:35:49;;;;;;;;;;;17.10;76.60;;;;;;6273488;22;19918;-82
2023/07/08 03:38:15;;;;;;;;;;;17.10;76.90;;;;;;6274134;22;19939;-82
2023/07/08 03:40:41;;;;;;;;;;;17.10;76.80;;;;;;6274226;22;19938;-82
2023/07/08 03:43:07;;;;;;;;;;;17.10;76.70;;;;;;6274264;22;19982;-81
2023/07/08 03:45:34;;;;;;;;;;;17.20;76.30;;;;;;6248954;22;20234;-82
2023/07/08 03:48:01;;;;;;;;;;;17.20;76.50;;;;;;6274070;22;19915;-82
2023/07/08 03:50:28;;;;;;;;;;;17.20;76.60;;;;;;6273847;22;19907;-81
2023/07/08 03:52:57;;;;;;;;;;;17.30;76.60;;;;;;6274506;22;19911;-82
2023/07/08 03:55:26;;;;;;;;;;;17.30;76.90;;;;;;6300231;22;19938;-82
2023/07/08 03:58:14;;;;;;;;;;;17.30;77.50;;;;;;6274635;22;20265;-82
2023/07/08 04:00:40;;;;;;;;;;;17.40;77.00;;;;;;6274067;22;20289;-82
2023/07/08 04:03:06;;;;;;;;;;;17.40;77.40;;;;;;6249268;22;19938;-82
2023/07/08 04:05:32;;;;;;;;;;;17.40;77.30;;;;;;6274618;22;19957;-82
2023/07/08 04:07:57;;;;;;;;;;;17.60;76.80;;;;;;6274774;22;19908;-82
2023/07/08 04:10:32;;;;;;;;;;;17.70;77.20;;;;;;6274444;22;19914;-82
2023/07/08 04:12:58;;;;;;;;;;;17.80;77.50;;;;;;6275889;22;20266;-82
2023/07/08 04:15:28;;;;;;;;;;;18.00;77.40;;;;;;6248455;22;19988;-82
2023/07/08 04:17:55;;;;;;;;;;;18.20;76.70;;;;;;6274431;22;20522;-81
2023/07/08 04:20:22;;;;;;;;;;;18.40;76.10;;;;;;6248140;22;19915;-82
2023/07/08 04:22:47;;;;;;;;;;;18.70;75.70;;;;;;6274390;22;19935;-82
2023/07/08 04:25:14;;;;;;;;;;;19.00;75.00;;;;;;6299625;22;20551;-82
2023/07/08 04:27:40;;;;;;;;;;;19.20;74.80;;;;;;6300568;22;20231;-82
2023/07/08 04:30:06;;;;;;;;;;;19.50;73.60;;;;;;6274277;22;19908;-81
2023/07/08 04:32:32;;;;;;;;;;;19.70;73.30;;;;;;6276100;22;19908;-82
2023/07/08 04:34:57;;;;;;;;;;;20.00;73.40;;;;;;6248656;22;19907;-82
2023/07/08 04:37:29;;;;;;;;;;;20.10;72.50;;;;;;6300024;22;19907;-82
2023/07/08 04:39:55;;;;;;;;;;;20.10;72.50;;;;;;6275021;22;19922;-82
2023/07/08 04:42:21;;;;;;;;;;;20.20;71.50;;;;;;6274219;22;19914;-83
2023/07/08 04:44:49;;;;;;;;;;;20.30;70.60;;;;;;6273764;22;20235;-82
2023/07/08 04:47:15;;;;;;;;;;;20.30;70.90;;;;;;6275795;22;20231;-82
2023/07/08 04:49:43;;;;;;;;;;;20.20;71.10;;;;;;6276069;22;19911;-83
2023/07/08 04:52:09;;;;;;;;;;;20.10;71.40;;;;;;6277013;22;20239;-82
2023/07/08 04:54:34;;;;;;;;;;;20.00;71.40;;;;;;6278001;22;19918;-82
2023/07/08 04:57:00;;;;;;;;;;;19.90;71.90;;;;;;6277959;22;19914;-82
2023/07/08 04:59:26;;;;;;;;;;;19.80;72.10;;;;;;6250940;22;19911;-82
2023/07/08 05:01:52;;;;;;;;;;;19.70;72.50;;;;;;6251156;22;19911;-82
2023/07/08 05:04:19;;;;;;;;;;;19.70;73.60;;;;;;6276774;22;19907;-83
2023/07/08 05:06:51;;;;;;;;;;;19.60;73.60;;;;;;6276518;22;19934;-82
2023/07/08 05:09:17;;;;;;;;;;;19.60;74.00;;;;;;6276174;22;19934;-82
2023/07/08 05:11:43;;;;;;;;;;;19.60;75.10;;;;;;6276324;22;19903;-82
2023/07/08 05:14:11;;;;;;;;;;;19.60;74.60;;;;;;6275597;22;19957;-82
2023/07/08 05:16:36;;;;;;;;;;;19.60;75.00;;;;;;6275977;22;19907;-82
2023/07/08 05:19:02;;;;;;;;;;;19.70;74.30;;;;;;6301685;22;19914;-82
2023/07/08 05:21:32;;;;;;;;;;;19.80;74.50;;;;;;6275354;22;20338;-82
2023/07/08 05:23:59;;;;;;;;;;;19.80;74.80;;;;;;6275822;22;20320;-83
2023/07/08 05:26:24;;;;;;;;;;;19.80;74.60;;;;;;6276004;22;19911;-82
2023/07/08 05:28:50;;;;;;;;;;;19.90;74.90;;;;;;6276337;22;20234;-82
2023/07/08 05:31:16;;;;;;;;;;;20.00;75.30;;;;;;6249917;22;19908;-82
2023/07/08 05:34:11;;;;;;;;;;;20.10;75.50;;;;;;6301098;22;19913;-82
2023/07/08 05:36:36;;;;;;;;;;;20.30;75.20;;;;;;6276072;22;19976;-83
2023/07/08 05:39:02;;;;;;;;;;;20.50;74.20;;;;;;6250717;22;19908;-82
2023/07/08 05:41:28;;;;;;;;;;;20.80;73.80;;;;;;6275951;22;19957;-82
2023/07/08 05:43:53;;;;;;;;;;;21.10;73.50;;;;;;6275866;22;20287;-82
2023/07/08 05:46:19;;;;;;;;;;;21.40;72.70;;;;;;6276094;22;19911;-82
2023/07/08 05:48:51;;;;;;;;;;;21.70;72.60;;;;;;6275631;22;20337;-83
2023/07/08 05:51:17;;;;;;;;;;;21.80;71.60;;;;;;6249108;22;19915;-82
2023/07/08 05:53:42;;;;;;;;;;;21.90;72.50;;;;;;6275319;22;19982;-82
2023/07/08 05:56:08;;;;;;;;;;;22.00;71.10;;;;;;6250556;22;19960;-83
2023/07/08 05:58:34;;;;;;;;;;;22.00;71.60;;;;;;6275555;22;19907;-83
2023/07/08 06:01:00;;;;;;;;;;;22.20;71.30;;;;;;6275913;22;20703;-82
2023/07/08 06:03:26;;;;;;;;;;;22.20;71.40;;;;;;6275376;22;19907;-82
2023/07/08 06:05:52;;;;;;;;;;;22.40;71.50;;;;;;6275672;22;19907;-83
2023/07/08 06:08:18;;;;;;;;;;;22.50;70.00;;;;;;6250372;22;19903;-83
2023/07/08 06:10:44;;;;;;;;;;;22.60;70.50;;;;;;6275631;22;20531;-82
2023/07/08 06:13:10;;;;;;;;;;;22.80;68.50;;;;;;6277204;22;19907;-83
2023/07/08 06:15:36;;;;;;;;;;;22.90;68.10;;;;;;6275497;22;19945;-83
2023/07/08 06:18:03;;;;;;;;;;;23.10;68.40;;;;;;6249867;22;20631;-83
2023/07/08 06:20:29;;;;;;;;;;;23.30;68.50;;;;;;6275289;22;20231;-82
2023/07/08 06:22:54;;;;;;;;;;;23.60;66.90;;;;;;6275623;22;19939;-83
2023/07/08 06:25:20;;;;;;;;;;;23.70;67.00;;;;;;6275756;22;19914;-82
2023/07/08 06:27:46;;;;;;;;;;;23.90;66.60;;;;;;6275746;22;19903;-83
2023/07/08 06:30:12;;;;;;;;;;;24.10;66.00;;;;;;6275732;22;19961;-83
2023/07/08 06:32:37;;;;;;;;;;;24.40;65.50;;;;;;6275442;22;19903;-82
2023/07/08 06:35:03;;;;;;;;;;;24.40;64.10;;;;;;6275551;22;20183;-82
2023/07/08 06:37:29;;;;;;;;;;;24.30;65.10;;;;;;6275329;22;19907;-82
2023/07/08 06:39:55;;;;;;;;;;;24.20;66.00;;;;;;6275265;22;19911;-82
2023/07/08 06:42:20;;;;;;;;;;;24.10;64.70;;;;;;6249923;22;19908;-82
2023/07/08 06:44:54;;;;;;;;;;;23.80;66.60;;;;;;6277387;22;19930;-82
2023/07/08 06:47:21;;;;;;;;;;;23.40;67.80;;;;;;6301163;22;19907;-82
2023/07/08 06:49:47;;;;;;;;;;;23.20;68.50;;;;;;6277724;22;19903;-82
2023/07/08 06:52:13;;;;;;;;;;;23.00;69.90;;;;;;6273391;22;19982;-82
2023/07/08 06:54:39;;;;;;;;;;;22.90;70.80;;;;;;6275245;22;20319;-82
2023/07/08 06:57:04;;;;;;;;;;;22.90;70.80;;;;;;6275349;22;19907;-82
2023/07/08 06:59:30;;;;;;;;;;;23.00;70.00;;;;;;6274674;22;19911;-82
2023/07/08 07:01:56;;;;;;;;;;;23.10;68.90;;;;;;6274993;22;20251;-82
2023/07/08 07:04:22;;;;;;;;;;;23.10;69.40;;;;;;6301362;22;19934;-83
2023/07/08 07:06:48;;;;;;;;;;;23.20;69.00;;;;;;6275215;22;19915;-82
2023/07/08 07:09:14;;;;;;;;;;;23.20;68.00;;;;;;6275296;22;20407;-82
2023/07/08 07:11:40;;;;;;;;;;;23.20;69.30;;;;;;6250453;22;19908;-82
2023/07/08 07:14:05;;;;;;;;;;;23.10;71.70;;;;;;6275233;22;20385;-82
2023/07/08 07:16:31;;;;;;;;;;;22.90;72.40;;;;;;6275458;22;19911;-82
2023/07/08 07:18:57;;;;;;;;;;;22.80;73.40;;;;;;6249558;22;19915;-82
2023/07/08 07:21:23;;;;;;;;;;;22.90;73.90;;;;;;6249109;22;20239;-82
2023/07/08 07:23:49;;;;;;;;;;;23.00;74.00;;;;;;6249185;22;19982;-82
2023/07/08 07:26:14;;;;;;;;;;;23.70;73.20;;;;;;6274956;22;19911;-82
2023/07/08 07:28:40;;;;;;;;;;;25.00;71.10;;;;;;6275094;22;19931;-82
2023/07/08 07:31:07;;;;;;;;;;;26.20;68.50;;;;;;6249930;22;19954;-82
2023/07/08 07:33:32;;;;;;;;;;;27.20;66.70;;;;;;6275248;22;19907;-82
2023/07/08 07:35:58;;;;;;;;;;;28.10;64.80;;;;;;6275208;22;19914;-83
2023/07/08 07:38:28;;;;;;;;;;;28.70;63.20;;;;;;6301025;22;19915;-83
2023/07/08 07:40:55;;;;;;;;;;;28.80;62.30;;;;;;6274896;22;19922;-82
2023/07/08 07:43:21;;;;;;;;;;;28.00;63.70;;;;;;6275230;22;19957;-83
2023/07/08 07:45:53;;;;;;;;;;;26.80;66.70;;;;;;6275241;22;19911;-82
2023/07/08 07:48:19;;;;;;;;;;;25.60;68.80;;;;;;6275615;22;19919;-83
2023/07/08 07:50:49;;;;;;;;;;;24.60;71.30;;;;;;6300445;22;19938;-83
2023/07/08 07:53:15;;;;;;;;;;;24.20;73.40;;;;;;6275106;22;19911;-83
2023/07/08 07:55:40;;;;;;;;;;;24.20;73.50;;;;;;6274967;22;19910;-82
2023/07/08 07:58:07;;;;;;;;;;;24.20;73.40;;;;;;6274668;22;20607;-85
2023/07/08 08:00:33;;;;;;;;;;;24.00;73.70;;;;;;6275145;22;19912;-82
2023/07/08 08:02:59;;;;;;;;;;;24.20;74.20;;;;;;6274339;22;19986;-82
2023/07/08 08:05:25;;;;;;;;;;;25.60;72.20;;;;;;6248783;22;19958;-86
2023/07/08 08:07:50;;;;;;;;;;;27.10;68.90;;;;;;6249763;22;20331;-87
2023/07/08 08:10:16;;;;;;;;;;;28.50;65.70;;;;;;6275772;22;19982;-87
2023/07/08 08:12:42;;;;;;;;;;;29.70;63.30;;;;;;6249602;22;19911;-87
2023/07/08 08:15:08;;;;;;;;;;;30.10;61.10;;;;;;6274352;22;19986;-86
2023/07/08 08:17:34;;;;;;;;;;;29.90;62.80;;;;;;6274763;22;20290;-86
2023/07/08 08:19:59;;;;;;;;;;;29.60;62.90;;;;;;6274689;22;20242;-85
2023/07/08 08:22:25;;;;;;;;;;;29.50;62.30;;;;;;6250865;22;19998;-85
2023/07/08 08:24:51;;;;;;;;;;;29.90;62.60;;;;;;6251700;22;19907;-86
2023/07/08 08:27:16;;;;;;;;;;;30.30;62.00;;;;;;6251455;22;19908;-86
2023/07/08 08:29:42;;;;;;;;;;;31.10;61.70;;;;;;6251700;22;19915;-86
2023/07/08 08:32:08;;;;;;;;;;;31.40;59.80;;;;;;6277280;22;19934;-85
2023/07/08 08:34:33;;;;;;;;;;;30.90;60.20;;;;;;6276919;22;20404;-84
2023/07/08 08:36:59;;;;;;;;;;;30.30;61.30;;;;;;6276236;22;19907;-86
2023/07/08 08:39:29;;;;;;;;;;;30.60;61.80;;;;;;6250746;22;19988;-85
2023/07/08 08:41:55;;;;;;;;;;;31.00;61.10;;;;;;6276874;22;20007;-86
2023/07/08 08:44:25;;;;;;;;;;;31.30;60.40;;;;;;6276639;22;19913;-87
2023/07/08 08:46:54;;;;;;;;;;;31.60;59.60;;;;;;6276590;22;19907;-86
2023/07/08 08:49:20;;;;;;;;;;;31.80;59.80;;;;;;6276802;22;20320;-86
2023/07/08 08:51:46;;;;;;;;;;;32.00;59.90;;;;;;6251487;22;19990;-87
2023/07/08 08:54:12;;;;;;;;;;;31.90;59.90;;;;;;6302935;22;19983;-87
2023/07/08 08:56:41;;;;;;;;;;;32.30;59.80;;;;;;6251245;22;20322;-85
2023/07/08 08:59:23;;;;;;;;;;;32.70;58.50;;;;;;6276278;22;20323;-85
2023/07/08 09:01:50;;;;;;;;;;;32.40;59.50;;;;;;6250533;22;19990;-86
2023/07/08 09:04:20;;;;;;;;;;;32.10;59.80;;;;;;6302013;22;19978;-86
2023/07/08 09:06:46;;;;;;;;;;;32.20;59.60;;;;;;6302611;22;19907;-86
2023/07/08 09:09:16;;;;;;;;;;;32.30;59.30;;;;;;6275851;22;19985;-85
2023/07/08 09:11:45;;;;;;;;;;;32.20;59.10;;;;;;6276554;22;19915;-86
2023/07/08 09:14:18;;;;;;;;;;;31.80;60.30;;;;;;6276075;22;20231;-86
2023/07/08 09:16:47;;;;;;;;;;;32.00;60.20;;;;;;6277113;22;20659;-85
2023/07/08 09:19:14;;;;;;;;;;;31.80;59.40;;;;;;6250910;22;19907;-86
2023/07/08 09:21:49;;;;;;;;;;;31.70;59.20;;;;;;6276608;22;20235;-86
2023/07/08 09:24:17;;;;;;;;;;;31.50;59.90;;;;;;6275658;22;20362;-85
2023/07/08 09:26:44;;;;;;;;;;;31.00;59.70;;;;;;6276205;22;19935;-85
2023/07/08 09:29:10;;;;;;;;;;;31.30;59.20;;;;;;6276215;22;19914;-86
2023/07/08 09:31:37;;;;;;;;;;;31.00;59.40;;;;;;6250062;22;19907;-85
2023/07/08 09:34:08;;;;;;;;;;;31.00;59.10;;;;;;6276469;22;19933;-84
2023/07/08 09:36:33;;;;;;;;;;;30.10;60.90;;;;;;6276332;22;19907;-86
2023/07/08 09:39:00;;;;;;;;;;;29.90;61.50;;;;;;6276161;22;19914;-86
2023/07/08 09:41:30;;;;;;;;;;;30.80;60.90;;;;;;6301902;22;20382;-86
2023/07/08 09:44:14;;;;;;;;;;;31.50;59.40;;;;;;6302415;22;19914;-87
2023/07/08 09:46:40;;;;;;;;;;;31.80;58.70;;;;;;6250676;22;20380;-87
2023/07/08 09:49:15;;;;;;;;;;;32.70;57.60;;;;;;6276198;22;19912;-87
2023/07/08 09:51:40;;;;;;;;;;;33.10;57.60;;;;;;6250290;22;19914;-86
2023/07/08 09:54:07;;;;;;;;;;;32.20;58.20;;;;;;6250881;22;19911;-86
2023/07/08 09:56:33;;;;;;;;;;;31.20;58.90;;;;;;6276250;22;19907;-87
2023/07/08 09:58:59;;;;;;;;;;;30.90;59.60;;;;;;6278095;22;19958;-85
2023/07/08 10:01:25;;;;;;;;;;;31.50;59.50;;;;;;6301915;22;20449;-86
2023/07/08 10:03:51;;;;;;;;;;;31.80;59.00;;;;;;6276481;22;19973;-86
2023/07/08 10:06:19;;;;;;;;;;;32.60;58.50;;;;;;6276369;22;20285;-86
2023/07/08 10:08:46;;;;;;;;;;;32.80;57.70;;;;;;6301993;22;19908;-86
2023/07/08 10:11:50;;;;;;;;;;;32.60;57.50;;;;;;6275580;22;19907;-86
2023/07/08 10:14:19;;;;;;;;;;;32.20;58.40;;;;;;6158985;23;19987;-86
2023/07/08 10:16:44;;;;;;;;;;;31.40;58.50;;;;;;6159193;23;19970;-86
2023/07/08 10:19:15;;;;;;;;;;;31.50;57.80;;;;;;6213349;22;20382;-87
2023/07/08 10:22:01;;;;;;;;;;;31.60;58.60;;;;;;6275895;22;19921;-86
2023/07/08 10:24:30;;;;;;;;;;;31.50;59.20;;;;;;6275055;22;20282;-87
2023/07/08 10:27:19;;;;;;;;;;;31.40;58.90;;;;;;6301324;22;19907;-87
2023/07/08 10:29:51;;;;;;;;;;;31.40;58.80;;;;;;6238008;22;19907;-87
2023/07/08 10:32:16;;;;;;;;;;;31.40;58.30;;;;;;6276052;22;20316;-86
2023/07/08 10:34:49;;;;;;;;;;;31.80;60.00;;;;;;6250411;22;19964;-87
2023/07/08 10:37:18;;;;;;;;;;;32.20;59.70;;;;;;6250317;22;19964;-86
2023/07/08 10:39:53;;;;;;;;;;;32.10;58.90;;;;;;6250783;22;20375;-87
2023/07/08 10:42:19;;;;;;;;;;;31.90;59.20;;;;;;6250392;22;20370;-86
2023/07/08 10:44:48;;;;;;;;;;;31.80;60.50;;;;;;6275453;22;19907;-86
2023/07/08 10:47:34;;;;;;;;;;;31.40;60.10;;;;;;6249919;22;20433;-87
2023/07/08 10:50:18;;;;;;;;;;;30.90;60.60;;;;;;6250361;22;19914;-86
2023/07/08 10:53:17;;;;;;;;;;;31.10;60.30;;;;;;6301932;22;19916;-86
2023/07/08 10:55:51;;;;;;;;;;;31.30;59.50;;;;;;6253308;22;19907;-86
2023/07/08 10:58:23;;;;;;;;;;;31.20;60.30;;;;;;6278266;22;19917;-87
2023/07/08 11:00:52;;;;;;;;;;;31.10;60.60;;;;;;6252673;22;19911;-87
2023/07/08 11:03:36;;;;;;;;;;;31.40;60.40;;;;;;6292752;22;19930;-86
2023/07/08 11:06:14;;;;;;;;;;;31.60;59.40;;;;;;6297708;22;19946;-87
2023/07/08 11:08:59;;;;;;;;;;;31.90;59.70;;;;;;6296799;22;19917;-86
2023/07/08 11:11:28;;;;;;;;;;;32.00;59.70;;;;;;6272765;22;19929;-87
2023/07/08 11:13:58;;;;;;;;;;;32.70;58.60;;;;;;6270883;22;19927;-86
2023/07/08 11:16:27;;;;;;;;;;;33.20;58.50;;;;;;6295285;22;19911;-86
2023/07/08 11:18:56;;;;;;;;;;;33.60;57.90;;;;;;6297462;22;19942;-86
2023/07/08 11:21:31;;;;;;;;;;;34.10;57.30;;;;;;6295583;22;19902;-86
2023/07/08 11:24:02;;;;;;;;;;;34.30;56.90;;;;;;6295822;22;19914;-87
2023/07/08 11:26:43;;;;;;;;;;;34.20;55.60;;;;;;6319812;22;19950;-86
2023/07/08 11:29:15;;;;;;;;;;;33.50;56.80;;;;;;6294988;22;19914;-86
2023/07/08 11:31:41;;;;;;;;;;;33.30;57.50;;;;;;6270380;22;19927;-86
2023/07/08 11:34:11;;;;;;;;;;;33.10;56.40;;;;;;6294942;22;20209;-86
2023/07/08 11:36:37;;;;;;;;;;;33.40;57.20;;;;;;6321325;22;19907;-86
2023/07/08 11:39:23;;;;;;;;;;;33.70;56.80;;;;;;6294356;22;19929;-87
2023/07/08 11:41:52;;;;;;;;;;;33.60;56.90;;;;;;6295771;22;19934;-86
2023/07/08 11:44:18;;;;;;;;;;;33.10;56.50;;;;;;6295034;22;19951;-87
2023/07/08 11:46:53;;;;;;;;;;;33.20;56.40;;;;;;6294272;22;19934;-88
2023/07/08 11:49:19;;;;;;;;;;;33.50;57.70;;;;;;6269576;22;19914;-87
2023/07/08 11:51:46;;;;;;;;;;;33.60;56.70;;;;;;6295575;22;19903;-86
2023/07/08 11:54:31;;;;;;;;;;;33.40;57.10;;;;;;6321790;22;19910;-86
2023/07/08 11:56:59;;;;;;;;;;;33.30;56.90;;;;;;6296582;22;19907;-87
2023/07/08 11:59:38;;;;;;;;;;;33.20;56.00;;;;;;6321902;22;19918;-86
2023/07/08 12:02:11;;;;;;;;;;;33.00;56.70;;;;;;6308472;22;19914;-86
2023/07/08 12:04:53;;;;;;;;;;;32.90;57.00;;;;;;6275229;22;19914;-87
2023/07/08 12:07:38;;;;;;;;;;;32.90;57.10;;;;;;6249965;22;19911;-86
2023/07/08 12:10:05;;;;;;;;;;;33.10;57.30;;;;;;6275261;22;19912;-87
2023/07/08 12:12:32;;;;;;;;;;;32.80;55.90;;;;;;6275907;22;19930;-86
2023/07/08 12:15:01;;;;;;;;;;;32.70;56.70;;;;;;6275304;22;19919;-86
2023/07/08 12:17:28;;;;;;;;;;;32.80;55.70;;;;;;6275615;22;19910;-86
2023/07/08 12:19:55;;;;;;;;;;;33.10;56.80;;;;;;6275761;22;20315;-86
2023/07/08 12:22:21;;;;;;;;;;;33.00;56.80;;;;;;6219890;23;19935;-87
2023/07/08 12:24:47;;;;;;;;;;;33.40;57.60;;;;;;6219922;23;19911;-86
2023/07/08 12:27:13;;;;;;;;;;;33.40;56.80;;;;;;6219959;23;19907;-87
2023/07/08 12:29:38;;;;;;;;;;;33.60;55.60;;;;;;6219790;23;19973;-87
2023/07/08 12:32:04;;;;;;;;;;;33.70;55.90;;;;;;6219473;23;20337;-87
2023/07/08 12:34:31;;;;;;;;;;;34.00;54.90;;;;;;6219980;23;19911;-86
2023/07/08 12:36:57;;;;;;;;;;;34.30;56.70;;;;;;6195440;23;19911;-87
2023/07/08 12:39:23;;;;;;;;;;;34.90;56.20;;;;;;6220427;23;19908;-87
2023/07/08 12:41:49;;;;;;;;;;;35.00;54.80;;;;;;6219936;23;19914;-87
2023/07/08 12:44:22;;;;;;;;;;;34.90;55.00;;;;;;6219626;23;20243;-87
2023/07/08 12:46:48;;;;;;;;;;;34.60;55.50;;;;;;6219087;23;20328;-87
2023/07/08 12:49:15;;;;;;;;;;;34.40;56.90;;;;;;6219644;23;19916;-87
2023/07/08 12:51:42;;;;;;;;;;;35.00;54.60;;;;;;6220253;23;19911;-87
2023/07/08 12:54:09;;;;;;;;;;;35.60;54.20;;;;;;6195239;23;19907;-86
2023/07/08 12:56:35;;;;;;;;;;;35.10;54.90;;;;;;6219812;23;19973;-87
2023/07/08 12:59:01;;;;;;;;;;;35.40;54.20;;;;;;6219948;23;19908;-87
2023/07/08 13:01:29;;;;;;;;;;;35.30;54.10;;;;;;6243971;23;19912;-86
2023/07/08 13:03:56;;;;;;;;;;;35.50;53.80;;;;;;6219391;23;19911;-87
2023/07/08 13:06:25;;;;;;;;;;;35.10;54.70;;;;;;6247074;23;19914;-87
2023/07/08 13:08:50;;;;;;;;;;;35.00;53.70;;;;;;6221178;23;20263;-86
2023/07/08 13:11:18;;;;;;;;;;;35.30;53.70;;;;;;6221446;23;19986;-87
2023/07/08 13:13:49;;;;;;;;;;;35.20;53.90;;;;;;6221410;23;19912;-87
2023/07/08 13:16:15;;;;;;;;;;;35.30;54.80;;;;;;6221698;23;19918;-87
2023/07/08 13:18:45;;;;;;;;;;;35.20;53.80;;;;;;6225207;23;19931;-87
2023/07/08 13:21:15;;;;;;;;;;;35.10;53.60;;;;;;6267702;22;19915;-87
2023/07/08 13:23:42;;;;;;;;;;;35.60;53.40;;;;;;6322030;22;19914;-87
2023/07/08 13:26:18;;;;;;;;;;;35.80;53.40;;;;;;6322390;22;19957;-87
2023/07/08 13:28:45;;;;;;;;;;;36.00;53.50;;;;;;6289572;22;19907;-87
2023/07/08 13:31:19;;;;;;;;;;;35.90;52.80;;;;;;6276713;22;19907;-86
2023/07/08 13:33:46;;;;;;;;;;;35.10;53.50;;;;;;6276670;22;19916;-86
2023/07/08 13:36:13;;;;;;;;;;;34.70;55.00;;;;;;6276725;22;20223;-86
2023/07/08 13:38:39;;;;;;;;;;;35.10;53.50;;;;;;6289453;22;19914;-87
2023/07/08 13:41:07;;;;;;;;;;;35.40;52.90;;;;;;6297519;22;19934;-87
2023/07/08 13:43:34;;;;;;;;;;;35.50;53.10;;;;;;6294359;22;19935;-86
2023/07/08 13:46:00;;;;;;;;;;;35.70;53.00;;;;;;6294580;22;19935;-87
2023/07/08 13:48:35;;;;;;;;;;;36.00;53.70;;;;;;6268472;22;19907;-86
2023/07/08 13:51:14;;;;;;;;;;;36.20;53.50;;;;;;6293107;22;19914;-85
2023/07/08 13:53:46;;;;;;;;;;;36.50;52.10;;;;;;6271105;22;19923;-86
2023/07/08 13:56:23;;;;;;;;;;;35.90;51.20;;;;;;6295875;22;19914;-86
2023/07/08 13:58:50;;;;;;;;;;;35.60;51.60;;;;;;6321046;22;19908;-86
2023/07/08 14:01:21;;;;;;;;;;;35.30;52.80;;;;;;6297431;22;19911;-87
2023/07/08 14:03:47;;;;;;;;;;;36.00;52.00;;;;;;6299391;22;19910;-86
2023/07/08 14:06:17;;;;;;;;;;;35.90;51.40;;;;;;6297944;22;19887;-86
2023/07/08 14:08:43;;;;;;;;;;;36.20;50.90;;;;;;6300626;22;20208;-88
2023/07/08 14:11:09;;;;;;;;;;;36.30;50.40;;;;;;6297991;22;19907;-86
2023/07/08 14:13:35;;;;;;;;;;;35.90;51.90;;;;;;6323551;22;20339;-87
2023/07/08 14:16:01;;;;;;;;;;;36.20;51.20;;;;;;6298339;22;19953;-87
2023/07/08 14:18:27;;;;;;;;;;;35.60;50.70;;;;;;6296042;22;19907;-88
2023/07/08 14:20:53;;;;;;;;;;;36.10;51.50;;;;;;6296249;22;19911;-87
2023/07/08 14:23:19;;;;;;;;;;;36.90;50.60;;;;;;6322667;22;19930;-87
2023/07/08 14:25:45;;;;;;;;;;;37.10;49.70;;;;;;6295972;22;19931;-87